Time;durP1;ratioP1;P1;durP2;ratioP2;P2;SDS_P1;SDS_P2;PMS_P1;PMS_P2;Temp;Humidity;BMP_temperature;BMP_pressure;BME280_temperature;BME280_humidity;BME280_pressure;Samples;Min_cycle;Max_cycle;Signal;HPM_P1;HPM_P2
2023/02/19 00:00:28;;;;;;;51.28;30.17;;;;;;;9.10;93.03;100499.09;5029622;28;20037;-69
2023/02/19 00:02:56;;;;;;;50.30;28.40;;;;;;;8.95;92.84;100470.91;5037606;28;20032;-68
2023/02/19 00:05:22;;;;;;;43.40;26.30;;;;;;;9.24;93.01;100519.44;5037336;28;20028;-68
2023/02/19 00:07:48;;;;;;;44.85;26.73;;;;;;;9.09;93.21;100488.53;5032120;28;20475;-67
2023/02/19 00:10:13;;;;;;;45.28;26.98;;;;;;;9.18;92.77;100506.53;5034060;28;20132;-68
2023/02/19 00:12:39;;;;;;;44.55;27.02;;;;;;;9.03;92.64;100484.50;5036872;28;20526;-69
2023/02/19 00:15:04;;;;;;;47.05;27.65;;;;;;;9.04;92.61;100496.06;5035381;28;20025;-69
2023/02/19 00:17:31;;;;;;;44.95;26.50;;;;;;;9.08;92.28;100501.06;5038974;28;20029;-68
2023/02/19 00:19:56;;;;;;;45.22;27.45;;;;;;;8.84;92.73;100470.88;5031320;28;20029;-69
2023/02/19 00:22:22;;;;;;;46.72;26.77;;;;;;;9.04;92.61;100509.47;5031177;28;20039;-69
2023/02/19 00:24:48;;;;;;;44.33;27.05;;;;;;;9.13;93.00;100524.78;5036645;28;20052;-69
2023/02/19 00:27:13;;;;;;;44.47;26.30;;;;;;;9.13;93.21;100514.09;5032655;28;20025;-69
2023/02/19 00:29:39;;;;;;;48.67;28.13;;;;;;;9.27;93.39;100537.94;5034652;28;20029;-69
2023/02/19 00:32:05;;;;;;;45.17;25.92;;;;;;;9.24;93.34;100528.31;5038593;28;20028;-68
2023/02/19 00:34:30;;;;;;;48.60;26.60;;;;;;;9.21;91.82;100491.09;5043387;28;20025;-68
2023/02/19 00:36:56;;;;;;;43.70;25.30;;;;;;;9.40;92.19;100517.25;5043333;28;20048;-68
2023/02/19 00:39:21;;;;;;;42.30;25.02;;;;;;;9.58;91.44;100514.91;5034048;28;20033;-69
2023/02/19 00:41:47;;;;;;;39.25;23.67;;;;;;;9.58;91.13;100526.50;5034965;28;20391;-69
2023/02/19 00:44:13;;;;;;;39.72;22.45;;;;;;;9.53;90.84;100531.34;5036652;28;20041;-68
2023/02/19 00:46:46;;;;;;;39.97;22.33;;;;;;;9.37;90.81;100497.88;5039285;28;20068;-68
2023/02/19 00:49:19;;;;;;;31.75;17.92;;;;;;;9.45;91.54;100515.06;5033878;28;20079;-69
2023/02/19 00:51:44;;;;;;;26.73;15.55;;;;;;;9.25;91.90;100491.69;5042048;28;20390;-68
2023/02/19 00:54:11;;;;;;;24.63;14.48;;;;;;;9.24;92.37;100487.31;5033227;28;20029;-68
2023/02/19 00:56:37;;;;;;;20.38;11.82;;;;;;;9.27;92.94;100484.41;5037190;28;20025;-68
2023/02/19 00:59:03;;;;;;;19.77;11.65;;;;;;;9.32;92.67;100510.81;5036607;28;20049;-68
2023/02/19 01:01:28;;;;;;;19.52;10.82;;;;;;;9.40;93.09;100511.88;5030086;28;20017;-75
2023/02/19 01:03:54;;;;;;;14.52;9.85;;;;;;;9.32;93.18;100484.03;5033262;28;20040;-69
2023/02/19 01:06:22;;;;;;;15.20;9.88;;;;;;;9.62;92.01;100492.28;5031045;28;20068;-69
2023/02/19 01:08:47;;;;;;;19.08;9.70;;;;;;;9.59;91.96;100492.50;5035931;28;20079;-69
2023/02/19 01:11:13;;;;;;;13.55;8.75;;;;;;;9.74;91.52;100500.16;5032072;28;20661;-75
2023/02/19 01:13:41;;;;;;;14.40;8.88;;;;;;;9.74;91.55;100494.78;5037198;28;20079;-75
2023/02/19 01:16:23;;;;;;;12.48;8.52;;;;;;;9.84;90.68;100502.94;5036384;28;20792;-75
2023/02/19 01:18:49;;;;;;;15.10;8.95;;;;;;;9.92;89.85;100501.34;5041536;28;20372;-75
2023/02/19 01:21:20;;;;;;;11.50;7.45;;;;;;;9.90;89.40;100495.22;5038418;28;20031;-73
2023/02/19 01:23:47;;;;;;;14.05;7.70;;;;;;;9.84;88.97;100490.41;5039947;28;20029;-74
2023/02/19 01:26:19;;;;;;;12.88;7.70;;;;;;;9.95;88.85;100503.75;5033016;28;20551;-74
2023/02/19 01:28:45;;;;;;;14.13;6.93;;;;;;;9.88;89.57;100488.31;5035966;28;20033;-74
2023/02/19 01:31:16;;;;;;;12.18;7.90;;;;;;;9.86;89.09;100492.97;5032007;28;20024;-73
2023/02/19 01:34:02;;;;;;;10.18;6.60;;;;;;;9.92;88.86;100487.94;5035676;28;20103;-73
2023/02/19 01:36:30;;;;;;;9.40;6.32;;;;;;;9.91;88.67;100499.66;5033173;28;20702;-73
2023/02/19 01:38:59;;;;;;;11.27;7.55;;;;;;;9.77;88.65;100499.91;5036680;28;20041;-74
2023/02/19 01:41:25;;;;;;;12.93;7.93;;;;;;;9.73;88.57;100506.50;5036450;28;20025;-74
2023/02/19 01:44:10;;;;;;;11.85;7.80;;;;;;;9.66;88.80;100518.69;5035401;28;20025;-74
2023/02/19 01:46:40;;;;;;;12.40;8.15;;;;;;;9.58;89.39;100510.44;5034229;28;20087;-74
2023/02/19 01:49:19;;;;;;;23.05;14.43;;;;;;;9.44;90.26;100491.94;5042282;28;20476;-74
2023/02/19 01:51:49;;;;;;;28.00;17.85;;;;;;;9.49;90.54;100513.84;5033165;28;20482;-75
2023/02/19 01:54:18;;;;;;;29.90;18.73;;;;;;;9.45;90.60;100508.84;5041502;28;20031;-74
2023/02/19 01:56:46;;;;;;;32.67;19.58;;;;;;;9.40;91.25;100511.03;5033895;28;20022;-75
2023/02/19 01:59:12;;;;;;;31.85;20.63;;;;;;;9.29;91.15;100512.75;5038124;28;20028;-75
2023/02/19 02:01:38;;;;;;;33.80;20.55;;;;;;;9.26;91.24;100509.47;5038884;28;20025;-75
2023/02/19 02:04:06;;;;;;;36.22;21.92;;;;;;;9.23;91.30;100509.72;5039681;28;20071;-75
2023/02/19 02:06:40;;;;;;;36.53;22.05;;;;;;;9.15;91.03;100502.28;5032217;28;20024;-75
2023/02/19 02:12:11;;;;;;;36.50;23.35;;;;;;;9.00;92.03;100521.38;4980900;28;20053;-73
2023/02/19 02:14:40;;;;;;;43.10;24.33;;;;;;;8.94;92.87;100514.66;4984160;28;20529;-74
2023/02/19 02:17:11;;;;;;;37.45;23.77;;;;;;;8.89;93.01;100516.00;5008746;28;20057;-75
2023/02/19 02:20:04;;;;;;;42.15;25.02;;;;;;;8.83;93.18;100511.13;5030916;28;20030;-73
2023/02/19 02:23:15;;;;;;;39.75;24.02;;;;;;;8.81;93.56;100515.75;5037998;28;20534;-73
2023/02/19 02:26:06;;;;;;;42.40;25.58;;;;;;;8.71;93.78;100514.75;5009619;28;20078;-74
2023/02/19 02:28:44;;;;;;;44.97;25.88;;;;;;;8.69;94.21;100514.00;5032872;28;20038;-74
2023/02/19 02:31:15;;;;;;;43.95;26.13;;;;;;;8.58;94.65;100520.16;5036760;28;20029;-74
2023/02/19 02:34:01;;;;;;;43.67;26.38;;;;;;;8.53;94.74;100511.66;5038929;28;20017;-74
2023/02/19 02:36:40;;;;;;;43.90;26.42;;;;;;;8.51;94.79;100518.94;5010901;28;20048;-73
2023/02/19 02:39:11;;;;;;;41.25;24.60;;;;;;;8.69;95.09;100514.88;5035971;28;20025;-73
2023/02/19 02:41:44;;;;;;;41.28;23.50;;;;;;;8.79;95.21;100504.31;5038591;28;20137;-74
2023/02/19 02:44:10;;;;;;;31.52;19.75;;;;;;;8.79;95.36;100501.63;5036801;28;20087;-74
2023/02/19 02:46:40;;;;;;;34.80;18.67;;;;;;;8.77;95.40;100499.06;5038844;28;20471;-75
2023/02/19 02:49:11;;;;;;;29.65;17.13;;;;;;;9.03;94.76;100502.41;5028120;28;20036;-74
2023/02/19 02:51:46;;;;;;;28.90;17.83;;;;;;;9.16;93.79;100498.63;5032955;28;20024;-74
2023/02/19 02:57:13;;;;;;;26.63;16.10;;;;;;;9.05;94.41;100484.41;5031660;28;20035;-74
2023/02/19 02:59:40;;;;;;;25.25;15.55;;;;;;;9.18;93.18;100487.81;5042516;28;20473;-73
2023/02/19 03:02:17;;;;;;;23.98;14.63;;;;;;;9.25;93.28;100487.19;5034849;28;20479;-73
2023/02/19 03:07:57;;;;;;;22.15;12.50;;;;;;;9.28;93.82;100507.50;5034454;28;20366;-74
2023/02/19 03:10:30;;;;;;;20.23;12.13;;;;;;;9.45;93.23;100508.84;5034242;28;20045;-74
2023/02/19 03:21:22;;;;;;;20.92;12.48;;;;;;;9.24;94.43;100538.16;5038603;28;20036;-73
2023/02/19 03:26:36;;;;;;;34.58;19.98;;;;;;;9.10;93.80;100531.22;5026725;28;20550;-74
2023/02/19 03:31:51;;;;;;;35.67;22.17;;;;;;;9.11;93.25;100532.06;5035571;28;20028;-75
2023/02/19 03:34:25;;;;;;;36.47;22.58;;;;;;;9.11;92.49;100518.69;5035949;28;20032;-75
2023/02/19 03:37:05;;;;;;;36.58;22.75;;;;;;;9.00;92.65;100524.88;5035486;28;20030;-74
2023/02/19 03:39:31;;;;;;;36.17;22.95;;;;;;;8.95;93.23;100542.25;5033360;28;20044;-74
2023/02/19 03:42:07;;;;;;;36.85;22.98;;;;;;;8.91;93.23;100532.78;5040447;28;20112;-75
2023/02/19 03:44:33;;;;;;;35.08;22.65;;;;;;;8.88;93.73;100541.03;5040430;28;20639;-74
2023/02/19 03:47:12;;;;;;;40.42;23.55;;;;;;;8.82;93.94;100531.69;5037840;28;20128;-74
2023/02/19 03:49:37;;;;;;;36.92;21.98;;;;;;;8.76;94.74;100525.94;5034848;28;20494;-74
2023/02/19 03:52:08;;;;;;;43.58;24.42;;;;;;;8.73;95.06;100515.47;5035128;28;20030;-74
2023/02/19 03:54:43;;;;;;;36.72;23.15;;;;;;;8.68;95.15;100515.81;5038547;28;20948;-74
2023/02/19 03:57:20;;;;;;;43.65;25.88;;;;;;;8.63;95.35;100512.66;5033186;28;20475;-74
2023/02/19 04:00:02;;;;;;;39.90;24.65;;;;;;;8.60;94.83;100522.72;5037420;28;20028;-75
2023/02/19 04:02:46;;;;;;;40.95;25.10;;;;;;;8.52;95.17;100531.31;5036702;28;20391;-68
2023/02/19 04:05:15;;;;;;;47.63;26.35;;;;;;;8.49;95.29;100526.25;5036074;28;20029;-68
2023/02/19 04:07:45;;;;;;;42.58;25.75;;;;;;;8.30;95.29;100499.22;5038997;28;20360;-69
2023/02/19 04:10:13;;;;;;;40.85;26.80;;;;;;;8.13;96.07;100480.88;5039136;28;20053;-68
2023/02/19 04:12:43;;;;;;;41.05;25.60;;;;;;;8.23;95.79;100518.47;5027754;28;20027;-69
2023/02/19 04:15:13;;;;;;;43.10;26.40;;;;;;;8.21;96.10;100512.34;5038294;28;20399;-68
2023/02/19 04:17:45;;;;;;;41.72;25.30;;;;;;;8.20;96.82;100519.53;5030234;28;20041;-68
2023/02/19 04:20:12;;;;;;;40.08;25.30;;;;;;;8.18;96.68;100517.94;5026777;28;20021;-69
2023/02/19 04:22:39;;;;;;;37.67;23.83;;;;;;;8.21;97.12;100501.66;5033886;28;20033;-68
2023/02/19 04:25:06;;;;;;;36.25;22.15;;;;;;;8.18;97.35;100464.50;5034333;28;20055;-67
2023/02/19 04:27:35;;;;;;;34.50;20.98;;;;;;;8.24;97.93;100482.78;5036469;28;20397;-68
2023/02/19 04:30:01;;;;;;;32.20;19.05;;;;;;;8.17;97.96;100462.81;5036075;28;20029;-68
2023/02/19 04:32:26;;;;;;;34.30;20.38;;;;;;;8.23;98.15;100483.75;5033456;28;20036;-68
2023/02/19 04:34:52;;;;;;;32.05;20.35;;;;;;;8.42;98.33;100516.97;5038272;28;20106;-68
2023/02/19 04:37:17;;;;;;;36.50;20.85;;;;;;;8.38;98.33;100509.28;5033551;28;20087;-68
2023/02/19 04:39:43;;;;;;;31.50;19.63;;;;;;;8.20;98.55;100495.50;5033431;28;20040;-66
2023/02/19 04:42:09;;;;;;;31.02;19.98;;;;;;;8.33;98.16;100512.34;5032339;28;20576;-68
2023/02/19 04:44:35;;;;;;;27.73;18.90;;;;;;;8.24;97.98;100512.16;5035086;28;20317;-67
2023/02/19 04:47:00;;;;;;;34.50;21.02;;;;;;;8.32;97.79;100509.78;5031457;28;20521;-67
2023/02/19 04:49:26;;;;;;;41.17;25.95;;;;;;;8.19;97.93;100512.47;5034168;28;20021;-67
2023/02/19 04:51:51;;;;;;;36.90;24.02;;;;;;;8.17;98.30;100514.41;5038815;28;20506;-67
2023/02/19 04:54:17;;;;;;;39.28;25.30;;;;;;;8.13;98.58;100520.94;5027687;28;20494;-66
2023/02/19 04:56:42;;;;;;;43.78;28.20;;;;;;;8.19;98.17;100531.16;5029579;28;20122;-67
2023/02/19 04:59:08;;;;;;;48.88;29.95;;;;;;;8.10;98.67;100509.66;5031844;28;20506;-67
2023/02/19 05:01:34;;;;;;;47.60;28.98;;;;;;;8.10;98.19;100528.34;5024502;28;20025;-68
2023/02/19 05:03:59;;;;;;;48.85;30.83;;;;;;;8.13;98.09;100534.28;5031452;28;20047;-68
2023/02/19 05:06:26;;;;;;;48.10;29.00;;;;;;;8.27;98.10;100565.38;5027741;28;20391;-75
2023/02/19 05:08:51;;;;;;;45.08;29.40;;;;;;;8.24;98.51;100565.59;5038383;28;20045;-75
2023/02/19 05:11:17;;;;;;;47.00;29.33;;;;;;;8.21;98.74;100561.31;5033461;28;20491;-74
2023/02/19 05:13:42;;;;;;;50.67;30.48;;;;;;;8.21;98.68;100560.44;5034173;28;20152;-75
2023/02/19 05:16:14;;;;;;;51.35;32.63;;;;;;;8.21;98.39;100571.13;5030343;28;20403;-75
2023/02/19 05:18:41;;;;;;;54.30;32.20;;;;;;;8.18;98.63;100566.00;5034616;28;20041;-75
2023/02/19 05:21:08;;;;;;;49.35;31.85;;;;;;;8.14;98.84;100564.53;5030402;28;20506;-74
2023/02/19 05:23:33;;;;;;;52.90;31.85;;;;;;;8.07;99.02;100547.25;5025258;28;20805;-68
2023/02/19 05:26:08;;;;;;;49.92;30.60;;;;;;;7.86;99.47;100509.63;5031541;28;20029;-68
2023/02/19 05:28:34;;;;;;;51.75;33.15;;;;;;;8.17;99.08;100543.81;5032243;28;20082;-68
2023/02/19 05:31:06;;;;;;;49.40;30.42;;;;;;;8.16;99.58;100552.75;5036686;28;20518;-68
2023/02/19 05:33:32;;;;;;;51.45;30.65;;;;;;;8.09;99.19;100554.19;5030822;28;20538;-68
2023/02/19 05:35:58;;;;;;;52.60;32.45;;;;;;;8.03;99.73;100540.44;5034760;28;20043;-68
2023/02/19 05:38:24;;;;;;;49.83;31.60;;;;;;;8.10;99.02;100541.69;5032248;28;20033;-68
2023/02/19 05:40:50;;;;;;;45.75;29.25;;;;;;;8.19;98.92;100549.88;5032415;28;20039;-68
2023/02/19 05:43:15;;;;;;;52.03;31.70;;;;;;;8.17;99.44;100558.97;5036368;28;20029;-69
2023/02/19 05:45:41;;;;;;;54.03;30.55;;;;;;;8.18;98.67;100552.66;5031315;28;20090;-67
2023/02/19 05:48:07;;;;;;;44.67;29.98;;;;;;;8.17;98.97;100562.50;5034933;28;20040;-67
2023/02/19 05:50:34;;;;;;;50.90;30.15;;;;;;;8.00;99.62;100532.66;5031110;28;20079;-67
2023/02/19 05:53:02;;;;;;;45.38;29.45;;;;;;;8.09;99.14;100556.88;5031518;28;20458;-67
2023/02/19 05:55:28;;;;;;;47.13;29.42;;;;;;;8.01;98.95;100545.03;5035491;28;20090;-68
2023/02/19 05:57:53;;;;;;;46.53;30.60;;;;;;;8.13;99.24;100547.66;5037549;28;20034;-66
2023/02/19 06:00:19;;;;;;;46.42;29.77;;;;;;;8.06;99.30;100532.22;5035301;28;20052;-68
2023/02/19 06:02:45;;;;;;;46.50;29.77;;;;;;;8.10;99.68;100550.53;5028962;28;20034;-66
2023/02/19 06:05:12;;;;;;;41.80;28.25;;;;;;;8.08;99.72;100548.97;5031040;28;20456;-66
2023/02/19 06:07:38;;;;;;;41.65;28.25;;;;;;;7.97;99.36;100530.22;5038793;28;20143;-67
2023/02/19 06:10:07;;;;;;;45.83;29.20;;;;;;;8.14;99.62;100572.56;5041948;28;20175;-67
2023/02/19 06:12:33;;;;;;;46.08;29.75;;;;;;;7.93;99.45;100521.56;5035361;28;20022;-66
2023/02/19 06:14:58;;;;;;;46.03;28.80;;;;;;;8.08;99.57;100548.97;5040517;28;20034;-67
2023/02/19 06:17:24;;;;;;;43.58;28.13;;;;;;;8.11;99.46;100554.94;5036406;28;20052;-67
2023/02/19 06:19:49;;;;;;;40.38;27.42;;;;;;;8.04;99.53;100555.50;5040761;28;20056;-68
2023/02/19 06:22:15;;;;;;;41.75;27.38;;;;;;;8.03;99.90;100541.28;5036441;28;20059;-68
2023/02/19 06:24:41;;;;;;;43.83;28.73;;;;;;;8.04;99.79;100544.81;5032439;28;20531;-68
2023/02/19 06:27:07;;;;;;;40.90;27.90;;;;;;;8.09;99.71;100535.50;5038429;28;20029;-68
2023/02/19 06:29:33;;;;;;;43.33;27.45;;;;;;;8.05;99.78;100530.50;5035480;28;20451;-66
2023/02/19 06:31:59;;;;;;;46.85;29.00;;;;;;;8.12;99.57;100548.63;5035437;28;20018;-66
2023/02/19 06:34:25;;;;;;;43.50;26.80;;;;;;;8.18;99.81;100545.50;5041595;28;20036;-68
2023/02/19 06:36:51;;;;;;;43.10;26.88;;;;;;;8.22;99.50;100541.66;5041234;28;20024;-75
2023/02/19 06:39:16;;;;;;;42.05;26.67;;;;;;;8.16;100.00;100520.72;5039155;28;20041;-68
2023/02/19 06:41:42;;;;;;;43.80;27.98;;;;;;;8.29;99.28;100532.22;5035922;28;20037;-68
2023/02/19 06:44:07;;;;;;;41.05;27.38;;;;;;;8.15;99.46;100512.81;5035847;28;20475;-67
2023/02/19 06:46:34;;;;;;;43.17;25.88;;;;;;;7.98;99.26;100466.00;5036955;28;20040;-67
2023/02/19 06:48:59;;;;;;;42.38;25.60;;;;;;;8.37;99.32;100534.31;5037091;28;20395;-67
2023/02/19 06:51:27;;;;;;;39.22;26.38;;;;;;;8.19;99.35;100506.28;5041279;28;20082;-67
2023/02/19 06:53:53;;;;;;;38.40;24.17;;;;;;;8.45;99.59;100526.59;5039372;28;20474;-74
2023/02/19 06:56:34;;;;;;;38.03;25.83;;;;;;;8.50;99.23;100532.41;5027088;28;20033;-73
2023/02/19 06:59:03;;;;;;;39.72;25.83;;;;;;;8.60;98.02;100533.41;5037668;28;20106;-68
2023/02/19 07:01:30;;;;;;;41.67;24.92;;;;;;;8.49;98.18;100512.03;5035765;28;20061;-68
2023/02/19 07:03:56;;;;;;;39.47;25.75;;;;;;;8.55;98.33;100516.91;5033176;28;20158;-69
2023/02/19 07:06:23;;;;;;;36.90;25.27;;;;;;;8.47;98.75;100493.41;5031018;28;20061;-69
2023/02/19 07:08:50;;;;;;;37.58;25.48;;;;;;;8.52;98.55;100501.94;5039798;28;20056;-68
2023/02/19 07:11:17;;;;;;;40.38;25.85;;;;;;;8.68;98.36;100525.69;5034674;28;20041;-66
2023/02/19 07:13:43;;;;;;;35.90;24.08;;;;;;;8.61;97.83;100513.75;5030880;28;20028;-67
2023/02/19 07:16:10;;;;;;;39.33;24.90;;;;;;;8.75;98.28;100526.91;5035794;28;20041;-68
2023/02/19 07:18:36;;;;;;;35.85;23.90;;;;;;;8.72;97.88;100493.25;5036151;28;20022;-67
2023/02/19 07:21:10;;;;;;;35.47;24.10;;;;;;;8.72;97.41;100487.03;5020854;28;20049;-67
2023/02/19 07:23:36;;;;;;;39.42;24.58;;;;;;;8.82;97.42;100494.25;5031291;28;20156;-67
2023/02/19 07:26:02;;;;;;;32.80;23.65;;;;;;;8.78;97.09;100482.06;5033070;28;20713;-68
2023/02/19 07:28:27;;;;;;;34.25;23.77;;;;;;;8.95;95.91;100472.72;5037883;28;20507;-68
2023/02/19 07:30:58;;;;;;;37.33;24.77;;;;;;;9.01;95.53;100491.81;5032902;28;20038;-68
2023/02/19 07:33:23;;;;;;;34.55;23.35;;;;;;;9.08;95.74;100493.03;5033364;28;20056;-69
2023/02/19 07:35:49;;;;;;;37.33;24.90;;;;;;;9.06;95.44;100475.38;5029155;28;20037;-68
2023/02/19 07:38:19;;;;;;;42.13;23.50;;;;;;;9.16;95.37;100497.78;5034058;28;20112;-68
2023/02/19 07:40:51;;;;;;;33.88;23.17;;;;;;;9.17;95.06;100497.69;5032324;28;20045;-68
2023/02/19 07:43:18;;;;;;;35.05;24.33;;;;;;;9.08;94.81;100474.31;5031832;28;20039;-66
2023/02/19 07:45:43;;;;;;;35.97;22.95;;;;;;;9.25;94.41;100502.38;5035606;28;20053;-68
2023/02/19 07:48:09;;;;;;;37.10;24.17;;;;;;;9.32;93.52;100487.53;5033708;28;20071;-69
2023/02/19 07:50:34;;;;;;;35.05;22.85;;;;;;;9.42;92.67;100487.69;5030990;28;20035;-69
2023/02/19 07:53:00;;;;;;;31.95;22.73;;;;;;;9.52;91.93;100494.84;5035253;28;20657;-68
2023/02/19 07:55:26;;;;;;;36.33;22.65;;;;;;;9.51;92.01;100503.00;5037577;28;20051;-68
2023/02/19 07:57:51;;;;;;;32.45;22.33;;;;;;;9.48;92.81;100493.38;5037751;28;20041;-69
2023/02/19 08:00:18;;;;;;;36.30;23.80;;;;;;;9.47;93.05;100502.38;5037680;28;20078;-69
2023/02/19 08:02:59;;;;;;;36.28;23.58;;;;;;;9.53;93.26;100511.75;5027833;28;20051;-68
2023/02/19 08:05:30;;;;;;;34.03;22.83;;;;;;;9.42;92.93;100496.56;5039824;28;20703;-68
2023/02/19 08:07:56;;;;;;;36.92;24.00;;;;;;;9.56;93.26;100509.69;5023632;28;20065;-75
2023/02/19 08:13:18;;;;;;;;;;;;;;;9.66;94.05;100516.00;5035341;28;20048;-74
2023/02/19 08:15:45;;;;;;;37.58;22.83;;;;;;;9.76;93.64;100508.06;5034970;28;19928;-75
2023/02/19 08:18:11;;;;;;;34.17;23.25;;;;;;;9.68;93.76;100495.31;5037938;28;20047;-74
2023/02/19 08:20:37;;;;;;;33.53;22.73;;;;;;;9.80;94.20;100513.03;5034513;28;20025;-74
2023/02/19 08:23:03;;;;;;;34.75;23.23;;;;;;;9.85;94.95;100508.19;5037011;28;20411;-74
2023/02/19 08:25:29;;;;;;;34.53;23.40;;;;;;;9.96;94.94;100512.66;5043116;28;20121;-74
2023/02/19 08:27:55;;;;;;;36.67;23.95;;;;;;;10.02;94.54;100504.94;5029272;28;20504;-73
2023/02/19 08:30:20;;;;;;;36.88;22.98;;;;;;;10.00;94.80;100506.91;5037450;28;20021;-73
2023/02/19 08:32:46;;;;;;;35.40;23.27;;;;;;;10.00;95.51;100517.63;5036412;28;20040;-74
2023/02/19 08:35:11;;;;;;;33.72;22.42;;;;;;;10.17;94.72;100518.94;5035483;28;20047;-74
2023/02/19 08:37:37;;;;;;;33.65;22.92;;;;;;;10.14;94.77;100501.31;5030813;28;20059;-73
2023/02/19 08:40:02;;;;;;;37.75;23.20;;;;;;;10.40;94.38;100512.50;5030248;28;20168;-75
2023/02/19 08:42:28;;;;;;;34.97;22.58;;;;;;;10.31;93.79;100500.72;5036728;28;20423;-75
2023/02/19 08:44:54;;;;;;;33.25;21.50;;;;;;;10.45;94.05;100531.75;5030573;28;20017;-75
2023/02/19 08:47:19;;;;;;;38.75;23.13;;;;;;;10.54;94.67;100515.72;5033092;28;20103;-78
2023/02/19 08:49:45;;;;;;;33.92;22.95;;;;;;;10.57;95.74;100533.38;5036934;28;20036;-77
2023/02/19 08:52:10;;;;;;;37.08;24.27;;;;;;;10.71;94.17;100530.41;5038450;28;20112;-76
2023/02/19 08:54:36;;;;;;;35.17;23.40;;;;;;;10.52;95.64;100539.16;5032633;28;20072;-72
2023/02/19 08:57:03;;;;;;;37.58;24.30;;;;;;;10.52;96.65;100530.25;5036315;28;20055;-70
2023/02/19 08:59:29;;;;;;;34.88;24.25;;;;;;;10.30;97.58;100515.13;5031599;28;20551;-70
2023/02/19 09:01:56;;;;;;;39.17;25.52;;;;;;;10.27;98.22;100519.88;5029398;28;20183;-70
2023/02/19 09:04:22;;;;;;;37.83;25.38;;;;;;;10.21;98.86;100521.25;5035528;28;20140;-71
2023/02/19 09:06:48;;;;;;;37.40;25.23;;;;;;;10.27;99.42;100536.81;5038918;28;20566;-71
2023/02/19 09:09:13;;;;;;;40.72;26.20;;;;;;;9.97;100.00;100487.56;5029923;28;20081;-71
2023/02/19 09:11:39;;;;;;;37.85;25.33;;;;;;;10.24;100.00;100538.91;5033910;28;20101;-71
2023/02/19 09:14:06;;;;;;;41.60;26.40;;;;;;;10.17;100.00;100530.53;5035933;28;20057;-71
2023/02/19 09:16:32;;;;;;;43.47;26.13;;;;;;;9.96;100.00;100481.34;5037954;28;20025;-72
2023/02/19 09:18:58;;;;;;;39.35;27.20;;;;;;;10.31;100.00;100540.09;5038091;28;20122;-71
2023/02/19 09:21:23;;;;;;;45.90;28.13;;;;;;;9.87;100.00;100455.31;5040120;28;20032;-71
2023/02/19 09:23:49;;;;;;;43.00;27.75;;;;;;;10.10;100.00;100481.09;5043857;28;20075;-71
2023/02/19 09:26:14;;;;;;;44.63;29.67;;;;;;;9.89;100.00;100441.78;5039589;28;20037;-69
2023/02/19 09:28:40;;;;;;;45.13;29.55;;;;;;;10.23;100.00;100494.31;5035718;28;20025;-71
2023/02/19 09:31:11;;;;;;;45.47;29.38;;;;;;;10.16;100.00;100479.72;5037965;28;20091;-70
2023/02/19 09:33:41;;;;;;;43.72;26.77;;;;;;;10.32;100.00;100466.75;5038241;28;20060;-71
2023/02/19 09:36:07;;;;;;;43.35;28.95;;;;;;;10.27;100.00;100426.91;5034259;28;20037;-71
2023/02/19 09:38:32;;;;;;;41.67;27.65;;;;;;;10.50;100.00;100457.97;5037039;28;20044;-71
2023/02/19 09:41:06;;;;;;;45.58;29.00;;;;;;;10.57;100.00;100447.56;5038563;28;20041;-71
2023/02/19 09:43:32;;;;;;;42.47;28.45;;;;;;;10.46;100.00;100418.16;5031826;28;20033;-71
2023/02/19 09:46:32;;;;;;;45.65;28.55;;;;;;;10.78;100.00;100453.78;5035620;28;20053;-69
2023/02/19 09:49:09;;;;;;;41.22;28.55;;;;;;;10.71;100.00;100461.50;5017065;28;20049;-70
2023/02/19 09:51:36;;;;;;;45.10;28.55;;;;;;;10.57;100.00;100434.16;5040334;28;20498;-71
2023/02/19 09:54:05;;;;;;;48.10;29.20;;;;;;;10.70;100.00;100432.13;5039955;28;20057;-71
2023/02/19 09:56:30;;;;;;;42.67;29.58;;;;;;;10.60;100.00;100399.03;5031305;28;20041;-71
2023/02/19 09:58:58;;;;;;;48.65;30.27;;;;;;;11.05;100.00;100454.91;5040314;28;20083;-71
2023/02/19 10:01:27;;;;;;;47.88;30.20;;;;;;;11.11;100.00;100477.69;5035177;28;20037;-71
2023/02/19 10:03:53;;;;;;;47.15;29.70;;;;;;;11.08;100.00;100449.28;5040333;28;20404;-71
2023/02/19 10:06:25;;;;;;;48.25;30.20;;;;;;;11.29;100.00;100484.97;5038721;28;20040;-70
2023/02/19 10:09:10;;;;;;;48.85;32.22;;;;;;;11.35;100.00;100472.81;5039518;28;20042;-71
2023/02/19 10:11:36;;;;;;;47.33;29.83;;;;;;;11.44;98.56;100474.69;5038121;28;20033;-78
2023/02/19 10:14:08;;;;;;;44.90;29.33;;;;;;;11.58;96.96;100493.97;5038347;28;20037;-78
2023/02/19 10:16:39;;;;;;;43.92;29.55;;;;;;;11.51;97.01;100489.28;5035245;28;20826;-78
2023/02/19 10:19:08;;;;;;;50.97;31.08;;;;;;;11.47;97.58;100485.16;5042995;28;20052;-77
2023/02/19 10:21:36;;;;;;;51.13;32.60;;;;;;;11.35;98.90;100479.06;5042836;28;20429;-78
2023/02/19 10:24:03;;;;;;;48.45;32.05;;;;;;;11.04;100.00;100474.69;5035499;28;20412;-78
2023/02/19 10:26:34;;;;;;;54.20;33.90;;;;;;;10.98;100.00;100475.22;5031899;28;20042;-78
2023/02/19 10:29:00;;;;;;;49.45;30.75;;;;;;;11.01;100.00;100504.47;5031457;28;20025;-78
2023/02/19 10:31:25;;;;;;;53.88;35.10;;;;;;;10.94;100.00;100494.41;5027680;28;20487;-78
2023/02/19 10:33:53;;;;;;;55.75;34.10;;;;;;;10.83;100.00;100498.00;5021163;28;20041;-78
2023/02/19 10:36:30;;;;;;;63.50;38.92;;;;;;;10.79;100.00;100514.50;5035571;28;20044;-77
2023/02/19 10:38:56;;;;;;;53.35;33.70;;;;;;;10.80;100.00;100505.50;5035495;28;20531;-77
2023/02/19 10:41:24;;;;;;;53.88;35.10;;;;;;;10.65;100.00;100514.84;5039208;28;20031;-79
2023/02/19 10:44:03;;;;;;;58.85;36.13;;;;;;;10.64;100.00;100505.91;5043051;28;20051;-78
2023/02/19 10:46:34;;;;;;;59.63;36.83;;;;;;;10.63;100.00;100508.75;5035558;28;20024;-77
2023/02/19 10:49:11;;;;;;;64.03;38.22;;;;;;;10.55;100.00;100524.63;5033328;28;20021;-78
2023/02/19 10:51:39;;;;;;;60.75;36.72;;;;;;;10.55;100.00;100511.22;5036286;28;20017;-77
2023/02/19 10:54:19;;;;;;;56.60;35.70;;;;;;;10.50;100.00;100516.13;5038177;28;20021;-78
2023/02/19 10:56:45;;;;;;;58.25;34.53;;;;;;;10.43;100.00;100502.41;5037858;28;20060;-72
2023/02/19 10:59:16;;;;;;;58.10;36.28;;;;;;;10.35;100.00;100480.72;5035213;28;20049;-72
2023/02/19 11:01:56;;;;;;;61.97;37.47;;;;;;;10.17;100.00;100451.94;5023925;28;20768;-70
2023/02/19 11:04:21;;;;;;;62.92;37.08;;;;;;;10.22;100.00;100460.47;5024257;28;20059;-71
2023/02/19 11:06:47;;;;;;;61.33;37.67;;;;;;;10.27;100.00;100461.78;5034951;28;20044;-71
2023/02/19 11:09:36;;;;;;;57.40;36.47;;;;;;;10.39;100.00;100449.16;5028254;28;20119;-71
2023/02/19 11:12:03;;;;;;;60.63;36.08;;;;;;;10.58;100.00;100436.72;5023734;28;20033;-72
2023/02/19 11:14:31;;;;;;;65.70;37.90;;;;;;;10.53;100.00;100414.81;5023898;28;20036;-71
2023/02/19 11:16:58;;;;;;;56.88;36.03;;;;;;;10.72;100.00;100440.91;5024155;28;20391;-71
2023/02/19 11:19:30;;;;;;;58.90;36.28;;;;;;;10.75;100.00;100403.94;5025021;28;20043;-71
2023/02/19 11:21:57;;;;;;;56.58;35.42;;;;;;;10.71;100.00;100421.25;5026454;28;20418;-71
2023/02/19 11:24:32;;;;;;;58.88;35.85;;;;;;;10.68;100.00;100386.66;5023740;28;20038;-71
2023/02/19 11:26:59;;;;;;;58.88;36.20;;;;;;;10.80;100.00;100390.97;5021966;28;20338;-72
2023/02/19 11:29:27;;;;;;;56.53;35.50;;;;;;;10.54;100.00;100336.06;5022021;28;20518;-71
2023/02/19 11:31:54;;;;;;;55.40;34.90;;;;;;;10.72;100.00;100358.59;5022885;28;20103;-72
2023/02/19 11:34:22;;;;;;;58.58;34.55;;;;;;;10.83;100.00;100363.00;5017814;28;20132;-71
2023/02/19 11:37:06;;;;;;;58.25;35.20;;;;;;;10.79;100.00;100349.03;5031923;28;20028;-71
2023/02/19 11:39:32;;;;;;;57.85;34.85;;;;;;;10.77;100.00;100332.19;5019252;28;20087;-72
2023/02/19 11:42:48;;;;;;;56.97;35.70;;;;;;;10.84;100.00;100324.47;5025501;28;20056;-71
2023/02/19 11:45:40;;;;;;;57.80;35.88;;;;;;;10.96;100.00;100332.28;4993888;28;20053;-78
2023/02/19 11:48:09;;;;;;;56.00;33.80;;;;;;;11.18;100.00;100342.78;5032425;28;20040;-79